Time;durP1;ratioP1;P1;durP2;ratioP2;P2;SDS_P1;SDS_P2;PMS_P1;PMS_P2;Temp;Humidity;BMP_temperature;BMP_pressure;BME280_temperature;BME280_humidity;BME280_pressure;Samples;Min_cycle;Max_cycle;Signal;HPM_P1;HPM_P2
2023/10/20 00:01:46;;;;;;;21.30;10.88;;;14.90;99.90;;;;;;6194351;23;20004;-63
2023/10/20 00:04:12;;;;;;;24.42;11.73;;;14.90;99.90;;;;;;6194561;23;20067;-64
2023/10/20 00:06:39;;;;;;;22.08;11.35;;;15.00;99.90;;;;;;6194339;23;20000;-63
2023/10/20 00:09:06;;;;;;;22.88;11.40;;;15.00;99.90;;;;;;6194464;23;20001;-64
2023/10/20 00:11:32;;;;;;;26.45;11.30;;;15.00;99.90;;;;;;6194525;23;20005;-64
2023/10/20 00:13:58;;;;;;;22.58;11.00;;;15.00;99.90;;;;;;6195036;23;20007;-64
2023/10/20 00:16:28;;;;;;;23.90;10.82;;;15.00;99.90;;;;;;6194970;23;20004;-64
2023/10/20 00:18:54;;;;;;;25.83;10.85;;;15.00;99.90;;;;;;6194152;23;20005;-63
2023/10/20 00:21:21;;;;;;;21.90;11.20;;;15.00;99.90;;;;;;6194302;23;20005;-63
2023/10/20 00:23:46;;;;;;;18.75;10.48;;;15.00;99.90;;;;;;6194218;23;20001;-63
2023/10/20 00:26:13;;;;;;;22.63;10.55;;;15.00;99.90;;;;;;6194323;23;20004;-63
2023/10/20 00:28:39;;;;;;;21.55;11.52;;;15.00;99.90;;;;;;6194120;23;20005;-63
2023/10/20 00:31:04;;;;;;;21.85;9.95;;;15.00;99.90;;;;;;6194280;23;20087;-63
2023/10/20 00:33:30;;;;;;;19.13;10.38;;;15.00;99.90;;;;;;6194252;23;19992;-63
2023/10/20 00:35:55;;;;;;;21.67;10.73;;;15.00;99.90;;;;;;6194056;23;19997;-63
2023/10/20 00:38:21;;;;;;;19.67;11.23;;;15.00;99.90;;;;;;6193844;23;20050;-64
2023/10/20 00:40:48;;;;;;;17.40;9.82;;;15.00;99.90;;;;;;6194269;23;20023;-63
2023/10/20 00:43:14;;;;;;;20.05;11.15;;;15.00;99.90;;;;;;6193966;23;20004;-63
2023/10/20 00:45:42;;;;;;;22.35;9.98;;;14.90;99.90;;;;;;6194504;23;20012;-64
2023/10/20 00:48:08;;;;;;;22.13;11.48;;;15.00;99.90;;;;;;6194789;23;20012;-63
2023/10/20 00:50:34;;;;;;;18.60;10.68;;;15.00;99.90;;;;;;6194003;23;20005;-63
2023/10/20 00:53:00;;;;;;;22.73;10.63;;;14.90;99.90;;;;;;6194258;23;20004;-63
2023/10/20 00:55:28;;;;;;;21.25;10.68;;;14.90;99.90;;;;;;6194440;23;20007;-63
2023/10/20 00:57:54;;;;;;;24.35;13.43;;;14.80;99.90;;;;;;6194856;23;20008;-63
2023/10/20 01:00:20;;;;;;;21.88;11.70;;;14.90;99.90;;;;;;6193716;23;20054;-64
2023/10/20 01:02:46;;;;;;;23.08;11.50;;;14.90;99.90;;;;;;6195061;23;20015;-63
2023/10/20 01:05:15;;;;;;;24.15;12.82;;;14.80;99.90;;;;;;6194540;23;20004;-63
2023/10/20 01:07:42;;;;;;;22.25;11.02;;;14.80;99.90;;;;;;6194222;23;20035;-64
2023/10/20 01:10:09;;;;;;;23.83;11.77;;;14.80;99.90;;;;;;6193613;23;20091;-63
2023/10/20 01:12:35;;;;;;;28.02;11.43;;;14.90;99.90;;;;;;6194211;23;20084;-63
2023/10/20 01:15:02;;;;;;;23.33;11.38;;;14.90;99.90;;;;;;6193887;23;20000;-63
2023/10/20 01:17:28;;;;;;;27.45;11.77;;;14.80;99.90;;;;;;6193913;23;20004;-63
2023/10/20 01:19:54;;;;;;;24.15;12.20;;;14.80;99.90;;;;;;6194032;23;20005;-63
2023/10/20 01:22:20;;;;;;;22.70;11.90;;;14.80;99.90;;;;;;6194136;23;20071;-63
2023/10/20 01:24:45;;;;;;;22.75;12.18;;;14.80;99.90;;;;;;6194291;23;20048;-63
2023/10/20 01:27:11;;;;;;;23.45;11.57;;;14.80;99.90;;;;;;6193910;23;20008;-63
2023/10/20 01:29:36;;;;;;;25.80;11.43;;;14.80;99.90;;;;;;6193678;23;20031;-63
2023/10/20 01:32:03;;;;;;;24.20;11.45;;;14.80;99.90;;;;;;6194110;23;20007;-63
2023/10/20 01:34:29;;;;;;;21.48;10.73;;;14.80;99.90;;;;;;6194685;23;20001;-63
2023/10/20 01:36:54;;;;;;;24.75;11.70;;;14.80;99.90;;;;;;6195795;23;20008;-63
2023/10/20 01:39:20;;;;;;;20.02;10.18;;;14.80;99.90;;;;;;6196701;23;20008;-63
2023/10/20 01:41:46;;;;;;;25.50;12.18;;;14.80;99.90;;;;;;6195910;23;20008;-63
2023/10/20 01:44:13;;;;;;;21.55;10.70;;;14.90;99.90;;;;;;6195808;23;20008;-63
2023/10/20 01:46:39;;;;;;;22.98;11.73;;;14.80;99.90;;;;;;6195922;23;20055;-63
2023/10/20 01:49:05;;;;;;;22.95;11.35;;;14.90;99.90;;;;;;6195849;23;20008;-63
2023/10/20 01:51:31;;;;;;;21.83;12.05;;;14.90;99.90;;;;;;6195587;23;20058;-63
2023/10/20 01:53:58;;;;;;;22.38;11.13;;;14.90;99.90;;;;;;6196602;23;20004;-63
2023/10/20 01:56:23;;;;;;;23.13;11.50;;;15.00;99.90;;;;;;6195457;23;20000;-63
2023/10/20 01:58:49;;;;;;;24.08;12.00;;;15.00;99.90;;;;;;6195838;23;20009;-63
2023/10/20 02:01:15;;;;;;;23.92;12.23;;;15.00;99.90;;;;;;6195264;23;20009;-63
2023/10/20 02:03:41;;;;;;;28.33;13.50;;;15.00;99.90;;;;;;6195383;23;20035;-63
2023/10/20 02:06:06;;;;;;;23.65;11.90;;;14.90;99.90;;;;;;6196415;23;20011;-63
2023/10/20 02:08:32;;;;;;;26.25;12.48;;;15.00;99.90;;;;;;6195849;23;20027;-63
2023/10/20 02:10:58;;;;;;;24.27;12.40;;;15.00;99.90;;;;;;6195189;23;20150;-63
2023/10/20 02:13:23;;;;;;;26.50;11.85;;;14.90;99.90;;;;;;6195471;23;19996;-63
2023/10/20 02:15:50;;;;;;;22.77;11.57;;;14.90;99.90;;;;;;6195564;23;20039;-63
2023/10/20 02:18:17;;;;;;;22.60;11.50;;;14.90;99.90;;;;;;6195348;23;20032;-63
2023/10/20 02:20:43;;;;;;;21.45;11.35;;;14.90;99.90;;;;;;6195098;23;20036;-63
2023/10/20 02:23:09;;;;;;;28.08;10.95;;;14.90;99.90;;;;;;6196368;23;20005;-63
2023/10/20 02:25:36;;;;;;;25.02;11.63;;;14.80;99.90;;;;;;6196178;23;20005;-63
2023/10/20 02:28:02;;;;;;;25.15;11.77;;;14.80;99.90;;;;;;6195354;23;20008;-63
2023/10/20 02:30:33;;;;;;;24.83;10.98;;;14.80;99.90;;;;;;6195061;23;20051;-63
2023/10/20 02:33:00;;;;;;;25.30;12.17;;;14.80;99.90;;;;;;6195044;23;20027;-63
2023/10/20 02:35:25;;;;;;;22.48;11.70;;;14.80;99.90;;;;;;6195231;23;20290;-63
2023/10/20 02:37:51;;;;;;;23.30;11.95;;;14.80;99.90;;;;;;6195339;23;20009;-63
2023/10/20 02:40:17;;;;;;;26.50;12.20;;;14.80;99.90;;;;;;6194813;23;20067;-63
2023/10/20 02:42:44;;;;;;;25.27;11.73;;;14.80;99.90;;;;;;6195012;23;20008;-63
2023/10/20 02:45:10;;;;;;;21.00;9.85;;;14.90;99.90;;;;;;6195318;23;20016;-63
2023/10/20 02:47:37;;;;;;;22.95;11.00;;;14.90;99.90;;;;;;6195029;23;20063;-63
2023/10/20 02:50:02;;;;;;;22.88;11.25;;;14.90;99.90;;;;;;6195105;23;20005;-63
2023/10/20 02:52:28;;;;;;;18.63;10.35;;;14.90;99.90;;;;;;6195153;22;20104;-62
2023/10/20 02:54:54;;;;;;;21.25;10.18;;;14.90;99.90;;;;;;6220970;23;20001;-62
2023/10/20 02:57:20;;;;;;;17.58;9.40;;;14.80;99.90;;;;;;6221121;23;20015;-62
2023/10/20 02:59:47;;;;;;;16.63;9.40;;;14.80;99.90;;;;;;6221069;23;20079;-62
2023/10/20 03:02:15;;;;;;;17.95;9.63;;;14.80;99.90;;;;;;6220966;23;20007;-62
2023/10/20 03:04:41;;;;;;;15.95;8.32;;;14.70;99.90;;;;;;6194700;23;20004;-62
2023/10/20 03:07:08;;;;;;;13.32;7.88;;;14.70;99.90;;;;;;6195186;23;20039;-62
2023/10/20 03:09:35;;;;;;;15.70;8.57;;;14.70;99.90;;;;;;6194630;23;20019;-62
2023/10/20 03:12:00;;;;;;;17.38;9.60;;;14.60;99.90;;;;;;6221197;23;20078;-62
2023/10/20 03:14:26;;;;;;;14.38;8.65;;;14.60;99.90;;;;;;6195128;23;20000;-62
2023/10/20 03:16:52;;;;;;;16.42;8.27;;;14.60;99.90;;;;;;6194909;23;20005;-62
2023/10/20 03:19:17;;;;;;;16.83;7.80;;;14.60;99.90;;;;;;6221153;23;20022;-62
2023/10/20 03:21:43;;;;;;;16.20;9.02;;;14.60;99.90;;;;;;6195016;23;20005;-62
2023/10/20 03:24:09;;;;;;;14.05;7.68;;;14.60;99.90;;;;;;6194863;23;20005;-62
2023/10/20 03:26:34;;;;;;;17.50;8.80;;;14.60;99.90;;;;;;6194968;23;20005;-62
2023/10/20 03:29:00;;;;;;;17.48;9.32;;;14.60;99.90;;;;;;6195316;23;20032;-62
2023/10/20 03:31:25;;;;;;;16.85;8.60;;;14.60;99.90;;;;;;6195504;23;20011;-62
2023/10/20 03:33:51;;;;;;;14.15;8.77;;;14.70;99.90;;;;;;6194793;23;19996;-62
2023/10/20 03:36:16;;;;;;;12.95;8.25;;;14.60;99.90;;;;;;6195458;23;20046;-62
2023/10/20 03:38:42;;;;;;;18.52;9.27;;;14.60;99.90;;;;;;6194788;23;20008;-62
2023/10/20 03:41:11;;;;;;;13.55;7.80;;;14.60;99.90;;;;;;6195300;23;20008;-63
2023/10/20 03:43:37;;;;;;;16.77;7.78;;;14.60;99.90;;;;;;6194907;23;20009;-63
2023/10/20 03:46:04;;;;;;;15.20;7.72;;;14.60;99.90;;;;;;6194685;23;20009;-63
2023/10/20 03:48:31;;;;;;;14.00;8.80;;;14.60;99.90;;;;;;6195270;23;20059;-62
2023/10/20 03:50:58;;;;;;;16.58;7.63;;;14.60;99.90;;;;;;6194613;23;20058;-62
2023/10/20 03:53:27;;;;;;;16.33;8.40;;;14.70;99.90;;;;;;6195443;23;20024;-62
2023/10/20 03:56:07;;;;;;;15.18;7.70;;;14.60;99.90;;;;;;6194795;23;20068;-62
2023/10/20 03:58:35;;;;;;;13.35;8.00;;;14.70;99.90;;;;;;6195336;23;20005;-62
2023/10/20 04:01:02;;;;;;;13.85;8.02;;;14.70;99.90;;;;;;6194672;23;20015;-62
2023/10/20 04:03:28;;;;;;;15.82;8.52;;;14.70;99.90;;;;;;6195274;23;20011;-62
2023/10/20 04:05:54;;;;;;;11.60;7.20;;;14.70;99.90;;;;;;6194706;23;20008;-63
2023/10/20 04:08:20;;;;;;;13.52;7.65;;;14.70;99.90;;;;;;6195394;23;20016;-63
2023/10/20 04:10:46;;;;;;;11.18;7.63;;;14.60;99.90;;;;;;6194391;23;20162;-63
2023/10/20 04:13:12;;;;;;;15.18;8.68;;;14.70;99.90;;;;;;6194559;23;19997;-63
2023/10/20 04:15:39;;;;;;;15.60;8.90;;;14.70;99.90;;;;;;6194744;23;20092;-63
2023/10/20 04:18:05;;;;;;;12.50;7.93;;;14.70;99.90;;;;;;6194400;23;20011;-64
2023/10/20 04:20:37;;;;;;;12.82;7.93;;;14.70;99.90;;;;;;6194479;23;20011;-63
2023/10/20 04:23:04;;;;;;;14.05;8.77;;;14.80;99.90;;;;;;6194888;23;20012;-63
2023/10/20 04:25:33;;;;;;;12.98;8.32;;;14.80;99.90;;;;;;6194461;23;20063;-63
2023/10/20 04:28:03;;;;;;;17.73;8.90;;;14.70;99.90;;;;;;6194057;23;20039;-63
2023/10/20 05:02:57;;;;;;;15.15;8.65;;;14.60;99.90;;;;;;6220587;23;20043;-63
2023/10/20 05:07:53;;;;;;;15.10;8.77;;;14.60;99.90;;;;;;6220081;23;20088;-63
2023/10/20 05:10:19;;;;;;;12.07;7.95;;;14.60;99.90;;;;;;6194629;23;20012;-63
2023/10/20 05:12:46;;;;;;;12.43;8.40;;;14.60;99.90;;;;;;6195560;23;20000;-63
2023/10/20 05:15:12;;;;;;;14.25;8.55;;;14.60;99.90;;;;;;6196666;23;20000;-63
2023/10/20 05:17:38;;;;;;;15.13;8.02;;;14.60;99.90;;;;;;6196179;23;20001;-63
2023/10/20 05:20:09;;;;;;;16.05;8.77;;;14.60;99.90;;;;;;6196715;23;20016;-63
2023/10/20 05:22:35;;;;;;;14.02;8.70;;;14.60;99.90;;;;;;6196103;23;20005;-63
2023/10/20 05:25:04;;;;;;;18.95;9.60;;;14.60;99.90;;;;;;6195639;23;20012;-63
2023/10/20 05:27:29;;;;;;;21.75;9.02;;;14.60;99.90;;;;;;6196717;23;20005;-63
2023/10/20 05:29:55;;;;;;;15.82;8.93;;;14.60;99.90;;;;;;6196858;23;20059;-63
2023/10/20 05:32:21;;;;;;;18.98;10.10;;;14.50;99.90;;;;;;6196596;23;20005;-63
2023/10/20 05:34:46;;;;;;;16.77;8.38;;;14.50;99.90;;;;;;6196180;23;19997;-63
2023/10/20 05:37:12;;;;;;;16.67;9.13;;;14.50;99.90;;;;;;6195661;23;20014;-63
2023/10/20 05:39:38;;;;;;;16.50;8.85;;;14.50;99.90;;;;;;6195959;23;20009;-63
2023/10/20 05:42:06;;;;;;;14.95;8.80;;;14.50;99.90;;;;;;6195798;23;20095;-63
2023/10/20 05:44:37;;;;;;;19.83;9.10;;;14.50;99.90;;;;;;6195827;23;20010;-63
2023/10/20 05:47:04;;;;;;;22.60;7.97;;;14.50;99.90;;;;;;6196514;23;20009;-63
2023/10/20 05:49:29;;;;;;;17.40;8.63;;;14.50;99.90;;;;;;6195756;23;20032;-63
2023/10/20 05:51:55;;;;;;;17.23;8.23;;;14.50;99.90;;;;;;6195562;23;20013;-63
2023/10/20 05:54:23;;;;;;;15.48;8.93;;;14.40;99.90;;;;;;6196742;23;19997;-63
2023/10/20 05:56:48;;;;;;;22.60;8.25;;;14.50;99.90;;;;;;6196420;23;20000;-63
2023/10/20 05:59:14;;;;;;;16.83;8.98;;;14.50;99.90;;;;;;6195264;23;20051;-63
2023/10/20 06:01:39;;;;;;;13.80;8.77;;;14.50;99.90;;;;;;6196340;23;20005;-63
2023/10/20 06:04:05;;;;;;;17.42;9.77;;;14.40;99.90;;;;;;6195814;23;20005;-63
2023/10/20 06:06:31;;;;;;;16.85;8.90;;;14.50;99.90;;;;;;6195673;23;20000;-63
2023/10/20 06:08:57;;;;;;;23.77;10.13;;;14.40;99.90;;;;;;6195197;23;20005;-63
2023/10/20 06:11:22;;;;;;;20.48;11.07;;;14.50;99.90;;;;;;6195938;23;19997;-63
2023/10/20 06:13:48;;;;;;;17.08;9.82;;;14.50;99.90;;;;;;6195694;23;20047;-63
2023/10/20 06:16:13;;;;;;;22.77;11.85;;;14.40;99.90;;;;;;6195777;23;20011;-63
2023/10/20 06:18:41;;;;;;;21.10;11.63;;;14.50;99.90;;;;;;6195235;23;20001;-63
2023/10/20 06:21:14;;;;;;;20.48;10.93;;;14.40;99.90;;;;;;6195411;23;20001;-63
2023/10/20 06:23:40;;;;;;;20.27;10.30;;;14.30;99.90;;;;;;6195538;23;20009;-63
2023/10/20 06:26:06;;;;;;;16.75;9.38;;;14.20;99.90;;;;;;6195162;23;20001;-63
2023/10/20 06:28:31;;;;;;;21.95;9.40;;;14.30;99.90;;;;;;6195849;23;20051;-63
2023/10/20 06:31:00;;;;;;;17.30;9.60;;;14.30;99.90;;;;;;6195654;23;20008;-63
2023/10/20 06:33:34;;;;;;;19.42;10.10;;;14.40;99.90;;;;;;6196165;23;20001;-63
2023/10/20 06:36:10;;;;;;;22.23;10.48;;;14.40;99.90;;;;;;6195570;23;20034;-63
2023/10/20 06:38:44;;;;;;;21.20;9.65;;;14.40;99.90;;;;;;6195216;23;20028;-63
2023/10/20 06:41:13;;;;;;;22.63;10.65;;;14.30;99.90;;;;;;6195924;23;20008;-63
2023/10/20 06:43:44;;;;;;;20.45;10.02;;;14.20;99.90;;;;;;6195368;23;20005;-63
2023/10/20 06:46:09;;;;;;;20.95;10.38;;;14.20;99.90;;;;;;6196044;23;20016;-63
2023/10/20 06:48:35;;;;;;;22.10;11.40;;;14.20;99.90;;;;;;6195268;23;20000;-63
2023/10/20 06:51:01;;;;;;;22.08;11.95;;;14.30;99.90;;;;;;6195114;23;20008;-63
2023/10/20 06:53:28;;;;;;;20.35;10.52;;;14.30;99.90;;;;;;6195056;23;20008;-63
2023/10/20 06:55:55;;;;;;;20.42;10.00;;;14.40;99.90;;;;;;6196007;23;20004;-63
2023/10/20 06:58:21;;;;;;;19.75;9.73;;;14.40;99.90;;;;;;6195813;23;20008;-63
2023/10/20 07:00:46;;;;;;;17.60;10.55;;;14.40;99.90;;;;;;6195273;23;20079;-63
2023/10/20 07:03:13;;;;;;;21.10;11.63;;;14.40;99.90;;;;;;6195289;23;20005;-63
2023/10/20 07:05:40;;;;;;;18.10;9.98;;;14.50;99.90;;;;;;6195773;23;20011;-63
2023/10/20 07:08:06;;;;;;;21.48;10.82;;;14.50;99.90;;;;;;6194923;23;20052;-62
2023/10/20 07:10:39;;;;;;;21.58;10.63;;;14.50;99.90;;;;;;6195757;23;20012;-62
2023/10/20 07:13:08;;;;;;;25.08;11.15;;;14.50;99.90;;;;;;6194445;23;20005;-62
2023/10/20 07:15:37;;;;;;;24.95;11.32;;;14.50;99.90;;;;;;6195728;23;20004;-62
2023/10/20 07:18:05;;;;;;;21.30;11.32;;;14.50;99.90;;;;;;6195603;23;20027;-62
2023/10/20 07:20:32;;;;;;;21.88;11.35;;;14.50;99.90;;;;;;6195200;23;20001;-63
2023/10/20 07:22:58;;;;;;;20.80;11.52;;;14.40;99.90;;;;;;6194492;23;20039;-63
2023/10/20 07:25:23;;;;;;;31.02;12.30;;;14.40;99.90;;;;;;6194985;23;20004;-63
2023/10/20 07:27:49;;;;;;;23.70;11.75;;;14.50;99.90;;;;;;6194968;23;20012;-63
2023/10/20 07:30:16;;;;;;;21.38;10.93;;;14.40;99.90;;;;;;6194966;23;20013;-62
2023/10/20 07:32:43;;;;;;;21.30;11.57;;;14.40;99.90;;;;;;6194792;23;20075;-63
2023/10/20 07:35:12;;;;;;;22.33;11.30;;;14.50;99.90;;;;;;6194810;23;20000;-63
2023/10/20 07:37:38;;;;;;;26.05;12.13;;;14.50;99.90;;;;;;6194847;23;20011;-62
2023/10/20 07:40:07;;;;;;;19.70;11.18;;;14.50;99.90;;;;;;6194395;23;20009;-63
2023/10/20 07:42:32;;;;;;;18.92;11.05;;;14.50;99.90;;;;;;6194607;23;20023;-62
2023/10/20 07:44:58;;;;;;;25.67;11.98;;;14.50;99.90;;;;;;6194495;23;20004;-62
2023/10/20 07:47:24;;;;;;;20.50;10.98;;;14.50;99.90;;;;;;6195021;23;20013;-63
2023/10/20 07:49:51;;;;;;;25.65;12.80;;;14.50;99.90;;;;;;6194637;23;20008;-63
2023/10/20 07:52:17;;;;;;;21.60;10.90;;;14.50;99.90;;;;;;6194235;23;20009;-63
2023/10/20 07:54:43;;;;;;;18.83;10.40;;;14.50;99.90;;;;;;6194635;23;20007;-64
2023/10/20 07:57:09;;;;;;;19.13;10.07;;;14.50;99.90;;;;;;6194382;23;20000;-64
2023/10/20 07:59:35;;;;;;;17.05;10.45;;;14.40;99.90;;;;;;6194100;23;20075;-63
2023/10/20 08:02:00;;;;;;;20.13;10.82;;;14.40;99.90;;;;;;6194434;23;20000;-63
2023/10/20 08:04:26;;;;;;;21.42;10.07;;;14.40;99.90;;;;;;6194940;23;20018;-63
2023/10/20 08:06:54;;;;;;;23.08;10.90;;;14.40;99.90;;;;;;6195607;23;20001;-63
2023/10/20 08:09:20;;;;;;;21.02;10.48;;;14.40;99.90;;;;;;6195249;23;20000;-63
2023/10/20 08:11:45;;;;;;;21.73;12.02;;;14.30;99.90;;;;;;6195042;23;20009;-63
2023/10/20 08:14:12;;;;;;;21.15;12.32;;;14.30;99.90;;;;;;6194628;23;20039;-63
2023/10/20 08:16:38;;;;;;;18.67;11.48;;;14.20;99.90;;;;;;6194277;23;20008;-63
2023/10/20 08:19:03;;;;;;;20.80;11.57;;;14.30;99.90;;;;;;6194327;23;20059;-63
2023/10/20 08:21:32;;;;;;;23.75;12.68;;;14.20;99.90;;;;;;6194719;23;20087;-63
2023/10/20 08:24:00;;;;;;;24.83;11.90;;;14.10;99.90;;;;;;6194286;23;20007;-63
2023/10/20 08:26:26;;;;;;;25.50;11.23;;;14.20;99.90;;;;;;6194143;23;20004;-63
2023/10/20 08:28:51;;;;;;;22.92;12.20;;;14.20;99.90;;;;;;6194578;23;20011;-63
2023/10/20 08:31:19;;;;;;;21.30;11.88;;;14.20;99.90;;;;;;6194938;23;20103;-63
2023/10/20 08:33:45;;;;;;;27.83;12.25;;;14.20;99.90;;;;;;6195507;23;20124;-63
2023/10/20 08:36:12;;;;;;;25.10;13.77;;;14.30;99.90;;;;;;6194362;23;20001;-63
2023/10/20 08:38:42;;;;;;;20.15;12.32;;;14.30;99.90;;;;;;6194174;23;20004;-63
2023/10/20 08:41:16;;;;;;;27.73;12.60;;;14.30;99.90;;;;;;6193948;23;20005;-64
2023/10/20 08:43:42;;;;;;;25.65;13.57;;;14.30;99.90;;;;;;6194484;23;20073;-64
2023/10/20 08:46:10;;;;;;;25.17;13.00;;;14.30;99.90;;;;;;6193555;23;20058;-64
2023/10/20 08:48:42;;;;;;;23.65;13.15;;;14.30;99.90;;;;;;6195033;23;20058;-64
2023/10/20 08:53:37;;;;;;;22.48;13.32;;;14.20;99.90;;;;;;6220844;23;20021;-64
2023/10/20 08:56:07;;;;;;;23.48;12.40;;;14.20;99.90;;;;;;6194501;23;20009;-64
2023/10/20 08:58:33;;;;;;;23.30;12.43;;;14.30;99.90;;;;;;6194981;23;19997;-64
2023/10/20 09:00:59;;;;;;;25.35;12.73;;;14.30;99.90;;;;;;6194264;23;20008;-64
2023/10/20 09:03:39;;;;;;;24.13;12.65;;;14.40;99.90;;;;;;6193874;23;20001;-65
2023/10/20 09:06:06;;;;;;;21.77;11.98;;;14.20;99.90;;;;;;6194117;23;20000;-64
2023/10/20 09:08:36;;;;;;;25.85;12.35;;;14.30;99.90;;;;;;6220072;23;20000;-64
2023/10/20 09:11:02;;;;;;;23.13;12.20;;;14.20;99.90;;;;;;6193599;23;20008;-64
2023/10/20 09:13:36;;;;;;;30.30;13.10;;;14.20;99.90;;;;;;6219972;23;20072;-64
2023/10/20 09:16:03;;;;;;;23.30;12.82;;;14.20;99.90;;;;;;6220445;23;20004;-64
2023/10/20 09:18:31;;;;;;;27.95;13.07;;;14.30;99.90;;;;;;6193620;23;20020;-64
2023/10/20 09:21:04;;;;;;;20.33;10.05;;;14.40;99.90;;;;;;6219936;23;20008;-65
2023/10/20 09:23:30;;;;;;;17.95;9.82;;;14.30;99.90;;;;;;6220424;23;20103;-65
2023/10/20 09:25:55;;;;;;;21.67;10.30;;;14.30;99.90;;;;;;6193811;23;20046;-65
2023/10/20 09:28:21;;;;;;;18.85;10.13;;;14.30;99.90;;;;;;6193840;23;20099;-65
2023/10/20 09:30:48;;;;;;;19.23;10.82;;;14.40;99.90;;;;;;6219892;23;20007;-65
2023/10/20 09:33:14;;;;;;;20.63;10.10;;;14.50;99.90;;;;;;6193892;23;20035;-65
2023/10/20 09:35:41;;;;;;;23.25;10.70;;;14.60;99.90;;;;;;6220288;23;20028;-65
2023/10/20 09:38:11;;;;;;;17.80;10.10;;;14.60;99.90;;;;;;6193630;23;20000;-65
2023/10/20 09:40:38;;;;;;;18.83;9.90;;;14.70;99.90;;;;;;6193697;23;20009;-65
2023/10/20 09:43:31;;;;;;;21.98;10.52;;;14.70;99.90;;;;;;6193619;23;20008;-65
2023/10/20 09:46:12;;;;;;;19.73;10.02;;;14.80;99.90;;;;;;6189329;23;20005;-65
2023/10/20 09:48:40;;;;;;;21.75;11.00;;;14.80;99.90;;;;;;6193721;23;20005;-65
2023/10/20 09:51:08;;;;;;;18.80;10.45;;;14.90;99.90;;;;;;6194360;23;20011;-65
2023/10/20 09:53:34;;;;;;;20.52;10.93;;;14.90;99.90;;;;;;6193504;23;20009;-64
2023/10/20 09:56:00;;;;;;;19.63;11.00;;;14.90;99.90;;;;;;6220238;23;19997;-64
2023/10/20 09:58:26;;;;;;;17.70;9.38;;;15.00;99.90;;;;;;6195480;23;20011;-64
2023/10/20 10:00:54;;;;;;;16.65;8.30;;;15.00;99.90;;;;;;6221692;23;20028;-65
2023/10/20 10:03:34;;;;;;;14.43;8.45;;;14.90;99.90;;;;;;6195425;23;20016;-65
2023/10/20 10:06:01;;;;;;;15.05;8.57;;;15.00;99.90;;;;;;6222414;23;19996;-64
2023/10/20 10:08:26;;;;;;;13.30;8.02;;;15.00;99.90;;;;;;6195893;23;20004;-64
2023/10/20 10:10:52;;;;;;;15.32;8.57;;;15.00;99.90;;;;;;6221492;23;20001;-64
2023/10/20 10:13:19;;;;;;;15.65;8.88;;;14.90;99.90;;;;;;6221424;23;20000;-64
2023/10/20 10:15:49;;;;;;;16.25;8.10;;;14.90;99.90;;;;;;6221664;23;19996;-64
2023/10/20 10:18:17;;;;;;;11.75;6.85;;;14.90;99.90;;;;;;6196536;23;20007;-64
2023/10/20 10:20:47;;;;;;;11.80;7.65;;;14.90;99.90;;;;;;6195470;23;20004;-65
2023/10/20 10:23:14;;;;;;;9.38;6.20;;;15.00;99.90;;;;;;6221292;23;20005;-64
2023/10/20 10:25:49;;;;;;;9.73;6.30;;;14.90;99.90;;;;;;6221347;23;20000;-65
2023/10/20 10:28:17;;;;;;;10.30;6.28;;;15.00;99.90;;;;;;6221742;23;20054;-64
2023/10/20 10:30:48;;;;;;;13.57;6.95;;;15.00;99.90;;;;;;6221209;23;20075;-65
2023/10/20 10:33:18;;;;;;;13.88;6.45;;;15.00;99.90;;;;;;6195334;23;20058;-64
2023/10/20 10:35:44;;;;;;;11.23;6.80;;;15.10;99.90;;;;;;6221356;23;20004;-64
2023/10/20 10:38:23;;;;;;;12.18;6.85;;;15.20;99.90;;;;;;6221665;23;19997;-64
2023/10/20 10:40:51;;;;;;;9.23;6.28;;;15.30;99.90;;;;;;6221592;23;20079;-64
2023/10/20 10:43:21;;;;;;;10.88;7.13;;;15.30;99.90;;;;;;6221451;23;20004;-64
2023/10/20 10:45:53;;;;;;;9.88;6.05;;;15.30;99.90;;;;;;6196210;23;20011;-64
2023/10/20 10:48:24;;;;;;;9.88;6.88;;;15.30;99.90;;;;;;6221188;23;20001;-64
2023/10/20 10:50:50;;;;;;;10.00;6.63;;;15.30;99.90;;;;;;6195934;23;20011;-64
2023/10/20 10:53:16;;;;;;;11.27;6.97;;;15.30;99.90;;;;;;6194922;23;20009;-63
2023/10/20 10:55:43;;;;;;;10.82;6.53;;;15.40;99.90;;;;;;6194914;23;20026;-64
2023/10/20 10:58:14;;;;;;;10.32;5.47;;;15.50;99.90;;;;;;6194835;23;19996;-65
2023/10/20 11:00:42;;;;;;;11.50;5.50;;;15.50;99.90;;;;;;6195124;23;20004;-65
2023/10/20 11:03:09;;;;;;;11.80;6.00;;;15.60;99.90;;;;;;6221063;23;20004;-65
2023/10/20 11:05:34;;;;;;;9.63;5.97;;;15.70;99.90;;;;;;6220969;23;20009;-66
2023/10/20 11:08:05;;;;;;;7.68;5.18;;;15.70;99.90;;;;;;6195858;23;20004;-65
2023/10/20 11:10:37;;;;;;;8.05;4.72;;;15.70;99.90;;;;;;6195785;23;20008;-66
2023/10/20 11:13:08;;;;;;;8.70;5.28;;;15.80;99.90;;;;;;6220745;23;20043;-65
2023/10/20 11:15:35;;;;;;;6.18;4.68;;;15.90;99.90;;;;;;6221002;23;20007;-64
2023/10/20 11:18:01;;;;;;;8.60;5.32;;;16.10;99.90;;;;;;6221321;23;20055;-63
2023/10/20 11:20:31;;;;;;;8.55;5.22;;;16.10;99.90;;;;;;6195361;23;20010;-63
2023/10/20 11:22:57;;;;;;;8.85;5.50;;;16.20;99.90;;;;;;6195080;23;20004;-63
2023/10/20 11:25:24;;;;;;;7.57;5.25;;;16.20;99.90;;;;;;6194657;23;20094;-63
2023/10/20 11:27:54;;;;;;;9.45;5.38;;;16.30;99.90;;;;;;6220775;23;20059;-63
2023/10/20 11:30:24;;;;;;;13.48;6.43;;;16.20;99.90;;;;;;6220519;23;20078;-65
2023/10/20 11:32:53;;;;;;;9.13;5.30;;;16.10;99.90;;;;;;6194968;23;20036;-64
2023/10/20 11:35:20;;;;;;;8.18;4.80;;;16.10;99.90;;;;;;6194609;23;20035;-65
2023/10/20 11:37:46;;;;;;;8.95;5.07;;;16.10;99.90;;;;;;6194734;23;20100;-66
2023/10/20 11:40:13;;;;;;;9.98;5.20;;;16.20;99.90;;;;;;6194499;23;20001;-66
2023/10/20 11:42:38;;;;;;;19.05;9.98;;;16.20;99.90;;;;;;6194581;23;20028;-66
2023/10/20 11:45:05;;;;;;;15.50;8.20;;;16.30;99.90;;;;;;6195622;23;20009;-66
2023/10/20 11:47:31;;;;;;;9.13;6.20;;;16.20;99.90;;;;;;6220555;23;20012;-66
2023/10/20 11:49:57;;;;;;;9.93;5.80;;;16.00;99.90;;;;;;6194880;23;20004;-66
2023/10/20 11:52:24;;;;;;;11.57;5.95;;;15.90;99.90;;;;;;6194434;23;20013;-66
2023/10/20 11:54:49;;;;;;;10.25;6.53;;;15.90;99.90;;;;;;6195039;23;20008;-66
2023/10/20 11:57:15;;;;;;;12.23;7.07;;;15.90;99.90;;;;;;6194634;23;20005;-65
2023/10/20 11:59:41;;;;;;;12.73;6.20;;;16.00;99.90;;;;;;6194683;23;20030;-65
2023/10/20 12:02:06;;;;;;;8.57;5.65;;;16.00;99.90;;;;;;6194730;23;20032;-65
2023/10/20 12:04:32;;;;;;;11.20;6.43;;;15.90;99.90;;;;;;6194198;23;20001;-65
2023/10/20 12:06:58;;;;;;;11.48;6.40;;;16.00;99.90;;;;;;6195575;23;20001;-66
2023/10/20 12:09:24;;;;;;;11.05;6.85;;;16.00;99.90;;;;;;6220368;23;19997;-65
2023/10/20 12:11:50;;;;;;;11.65;6.97;;;15.90;99.90;;;;;;6194096;23;20009;-65
2023/10/20 12:14:15;;;;;;;10.77;6.72;;;16.00;99.90;;;;;;6194159;23;20143;-65
2023/10/20 12:16:42;;;;;;;9.15;6.07;;;16.00;99.90;;;;;;6194147;23;20005;-65
2023/10/20 12:19:07;;;;;;;13.07;6.97;;;16.00;99.90;;;;;;6194219;23;20020;-65
2023/10/20 12:21:33;;;;;;;11.63;6.40;;;15.90;99.90;;;;;;6194100;23;20012;-65
2023/10/20 12:23:59;;;;;;;9.40;6.22;;;15.90;99.90;;;;;;6194112;23;20087;-65
2023/10/20 12:26:26;;;;;;;9.55;5.35;;;15.90;99.90;;;;;;6194129;23;20004;-65
2023/10/20 12:28:52;;;;;;;9.20;5.93;;;15.80;99.90;;;;;;6194192;23;20009;-65
2023/10/20 12:31:18;;;;;;;7.95;5.57;;;15.80;99.90;;;;;;6220200;23;20005;-65
2023/10/20 12:33:44;;;;;;;10.90;5.78;;;15.80;99.90;;;;;;6220130;23;20075;-65
2023/10/20 12:36:14;;;;;;;15.93;6.07;;;15.90;99.90;;;;;;6194422;23;20027;-65
2023/10/20 12:38:46;;;;;;;10.80;5.85;;;15.90;99.90;;;;;;6194204;23;20071;-65
2023/10/20 12:41:13;;;;;;;11.73;6.47;;;15.90;99.90;;;;;;6194119;23;20015;-65
2023/10/20 12:43:39;;;;;;;8.10;5.35;;;15.90;99.90;;;;;;6195103;23;20008;-64
2023/10/20 12:46:05;;;;;;;13.68;6.53;;;15.80;99.90;;;;;;6193963;23;20012;-65
2023/10/20 12:48:30;;;;;;;7.60;5.25;;;15.90;99.90;;;;;;6194602;23;20031;-65
2023/10/20 12:50:57;;;;;;;11.52;6.65;;;16.00;99.90;;;;;;6193779;23;20008;-64
2023/10/20 12:53:23;;;;;;;8.57;5.82;;;16.00;99.90;;;;;;6193785;23;20087;-64
2023/10/20 12:55:48;;;;;;;10.98;6.20;;;16.20;99.90;;;;;;6220289;23;19996;-64
2023/10/20 12:58:14;;;;;;;9.52;5.80;;;16.40;99.90;;;;;;6194174;23;20052;-65
2023/10/20 13:00:40;;;;;;;11.00;6.80;;;16.30;99.90;;;;;;6193971;23;20004;-64
2023/10/20 13:03:06;;;;;;;11.77;6.28;;;16.10;99.90;;;;;;6219889;23;20004;-64
2023/10/20 13:05:33;;;;;;;8.85;5.65;;;15.80;99.90;;;;;;6220054;23;20000;-68
2023/10/20 13:07:59;;;;;;;13.50;6.78;;;15.60;99.90;;;;;;6220033;23;20007;-69
2023/10/20 13:10:25;;;;;;;9.43;5.75;;;15.80;99.90;;;;;;6219928;23;20001;-69